This is the latest recevied weather packets stored in our database for station/object JH5EWP-13. If no packets are shown the sender has not sent any weather packets the latest 1 day(s).
| Time | Temp. | Humidity | Pressure | Rain* | Wind** | Luminosity | Snow |
|---|---|---|---|---|---|---|---|
| 1777962224 | 21.67° C | 32% | 1008.7 hPa | 0 mm | 2.24 m/s, 269° | - | - |
| 1777961324 | 22.22° C | 31% | 1008.9 hPa | 0 mm | 1.34 m/s, 302° | - | - |
| 1777960426 | 21.11° C | 35% | 1009 hPa | 0 mm | 1.79 m/s, 271° | - | - |
| 1777959526 | 21.11° C | 37% | 1008.9 hPa | 0 mm | 2.24 m/s, 253° | - | - |
| 1777958626 | 20.56° C | 41% | 1009.2 hPa | 0 mm | 1.79 m/s, 271° | - | - |
| 1777957726 | 20.56° C | 44% | 1009.5 hPa | 0 mm | 2.24 m/s, 262° | - | - |
| 1777956826 | 20° C | 44% | 1009.6 hPa | 0 mm | 2.24 m/s, 270° | - | - |
| 1777955925 | 20° C | 42% | 1009.9 hPa | 0 mm | 2.68 m/s, 270° | - | - |
| 1777955025 | 20° C | 42% | 1009.9 hPa | 0 mm | 2.24 m/s, 270° | - | - |
| 1777954124 | 20° C | 41% | 1010 hPa | 0 mm | 2.24 m/s, 275° | - | - |
| 1777953225 | 19.44° C | 43% | 1010.2 hPa | 0 mm | 3.13 m/s, 274° | - | - |
| 1777952325 | 20° C | 44% | 1010.3 hPa | 0 mm | 2.24 m/s, 279° | - | - |
| 1777951425 | 20.56° C | 41% | 1010.3 hPa | 0 mm | 2.24 m/s, 282° | - | - |
| 1777950525 | 21.67° C | 40% | 1010.5 hPa | 0 mm | 1.79 m/s, 311° | - | - |
| 1777949625 | 20.56° C | 35% | 1010.6 hPa | 0 mm | 1.79 m/s, 288° | - | - |
| 1777948725 | 20° C | 35% | 1010.8 hPa | 0 mm | 1.79 m/s, 286° | - | - |
| 1777947825 | 20.56° C | 36% | 1010.9 hPa | 0 mm | 1.79 m/s, 288° | - | - |
| 1777946924 | 20° C | 41% | 1010.9 hPa | 0 mm | 1.79 m/s, 301° | - | - |
| 1777946024 | 19.44° C | 42% | 1011 hPa | 0 mm | 1.79 m/s, 286° | - | - |
| 1777945124 | 19.44° C | 42% | 1011.3 hPa | 0 mm | 1.79 m/s, 288° | - | - |
| 1777944226 | 19.44° C | 41% | 1011.2 hPa | 0 mm | 1.34 m/s, 295° | - | - |
| 1777943326 | 18.89° C | 42% | 1011.2 hPa | 0 mm | 1.79 m/s, 264° | - | - |
* Rain latest hour (hover to see other rain measurements)
** Current wind speed in m/s (hover to see current wind gust speed)